【JGC回数修行】目指せ亀タグ☆FIVE STAR 1250回!!

楽しみにしている回数修行旅行記のブログが少なかったので、自分で実体験して、皆にシェアしようと。そして、JGC 亀タグ&FIVE STAR獲得のための 搭乗1250回の記録

【BA修行#010】20200109_JTA211_OKA-UEO

2020年1月9日木曜日

- JTA211 那覇-久米島

- 紐付けをBAに変更したフライト

------------------------------

f:id:ozc1250tokyo:20200109003028p:image
とりあえず、「7A」を予約しました。でも、後方はかなりガラガラだなぁ…

--------------------------------

f:id:ozc1250tokyo:20200109134211j:image
今朝、那覇空港カウンターで、クラスJにアップグレード⤴️し、BAに紐付けしてもらいました。これで、BA のティアポイントが獲得出来るはず…
f:id:ozc1250tokyo:20200109134156j:image

久米島行き、搭乗開始されました。搭乗者数がそんなに多くなさそうなので、開始時間もゆっくり、かな😅

f:id:ozc1250tokyo:20200109134151j:image

先程、宮古島から搭乗してきた機体の「7号機」です。7号機の機内Wi-Fiと自分のスマホの相性は良く、サクサクツナカがります😊
f:id:ozc1250tokyo:20200109134201j:image

曇天模様だ…スカイマークのウィングレットのハート♥️マークも気になりますねー笑笑

実況値確認です。

METAR

01/09 13:30 ROAH 090430Z 36008KT 330V040 9999 FEW035 BKN045 19/10 Q1020 RMK 2CU035 7SC045 A3012=
やはり中層雲主体に分厚そう…☁️気温は19℃、羽織るものがないと、少し寒いかも😨


f:id:ozc1250tokyo:20200109134412j:image

f:id:ozc1250tokyo:20200109134407j:image

初めて気付いた…空港から水平線の彼方にラフな渡嘉敷島?慶良間?列島が見える😳皆にも見えるかなぁ?


f:id:ozc1250tokyo:20200109134446j:image

f:id:ozc1250tokyo:20200109134451j:image

f:id:ozc1250tokyo:20200109134456j:image

ん、トーイングカーでバックしていたら、見られない機体が来た…鶴丸マークのJAL...の機体、ずんぐりしている😅


f:id:ozc1250tokyo:20200109134531j:image

f:id:ozc1250tokyo:20200109134519j:image

f:id:ozc1250tokyo:20200109134525j:image

あー、JACさんのATRだ…一日一便しか那覇に到達しない…😳
f:id:ozc1250tokyo:20200109135301j:image
こちらで離陸順番待ち…那覇空港の昼過ぎからなぜいつも混み合うのか?久米島行きなんて飛行時間よりも、離陸待ち🛫の時間が長くなる時がある…第二滑走路が運用始まったら混雑具合は良化するのかな?🤔

f:id:ozc1250tokyo:20200109140025j:image

14時になったけれども、TWYのまだこの辺…あと何機待ちなのか?

f:id:ozc1250tokyo:20200109140829j:image

ようやく離陸しました🛫エアボーンは1407JSTです

f:id:ozc1250tokyo:20200109140928j:image

新しい海側の滑走路がはっきり見えました!

f:id:ozc1250tokyo:20200109141210j:image

雲とエンジン…くじら🐳が見たかった

f:id:ozc1250tokyo:20200109141216j:image

やはり雲海…と思いきや、

f:id:ozc1250tokyo:20200109141357j:image

島が見えました。慶良間列島のどちらかの島ですかね…😅


f:id:ozc1250tokyo:20200109142444j:image

f:id:ozc1250tokyo:20200109142440j:image

久米島近く、降下中ですが、機体は小刻みに時折揺れます。海の上なのに、高度で少し風速差があるのかな…昨日の宮崎とはことなり、白波がバンバンたってはいないけれども…😅
f:id:ozc1250tokyo:20200109142912j:image

到着です。タッチダウンは、1428JSTでした。

f:id:ozc1250tokyo:20200109144529j:image

実況値確認です。

METAR

01/09 14:00 ROKJ 090500Z 02009KT 9999 FEW034 FEW043 SCT050 20/11 Q1019 RMK A3011=
気温は20℃だけれど、太陽の光があるから、寒くはない。

では、今回初の昼間の久米島空港です😅

以上